createdAt,value
2017-12-16T00:01:36.009Z,3.50
2017-12-16T00:04:02.949Z,3.50
2017-12-16T00:06:29.897Z,3.60
2017-12-16T00:08:56.843Z,3.60
2017-12-16T00:11:23.802Z,3.60
2017-12-16T00:13:50.753Z,3.70
2017-12-16T00:16:17.666Z,3.70
2017-12-16T00:18:45.380Z,3.70
2017-12-16T00:21:12.323Z,3.70
2017-12-16T00:23:39.244Z,3.70
2017-12-16T00:26:06.196Z,3.70
2017-12-16T00:28:34.055Z,3.70
2017-12-16T00:31:00.985Z,3.70
2017-12-16T00:33:27.901Z,3.70
2017-12-16T00:35:55.612Z,3.80
2017-12-16T00:38:23.783Z,3.80
2017-12-16T00:40:50.721Z,3.80
2017-12-16T00:43:17.633Z,3.80
2017-12-16T00:45:45.353Z,3.70
2017-12-16T00:48:12.262Z,3.60
2017-12-16T00:50:39.185Z,3.60
2017-12-16T00:53:06.969Z,3.50
2017-12-16T00:55:33.959Z,3.80
2017-12-16T00:58:00.862Z,3.40
2017-12-16T01:00:27.791Z,3.40
2017-12-16T01:02:54.741Z,3.40
2017-12-16T01:05:21.664Z,3.50
2017-12-16T01:07:49.365Z,3.50
2017-12-16T01:10:16.321Z,3.70
2017-12-16T01:12:43.230Z,3.50
2017-12-16T01:15:10.964Z,3.30
2017-12-16T01:17:37.910Z,3.30
2017-12-16T01:20:06.667Z,3.30
2017-12-16T01:22:33.593Z,3.40
2017-12-16T01:25:00.548Z,3.40
2017-12-16T01:27:27.573Z,3.30
2017-12-16T01:29:54.503Z,3.40
2017-12-16T01:32:21.443Z,3.40
2017-12-16T01:35:00.913Z,3.30
2017-12-16T01:37:39.632Z,3.50
2017-12-16T01:40:06.592Z,3.30
2017-12-16T01:42:33.539Z,3.30
2017-12-16T01:45:00.487Z,3.30
2017-12-16T01:47:28.240Z,3.20
2017-12-16T01:49:55.174Z,3.40
2017-12-16T01:52:22.089Z,3.20
2017-12-16T01:54:49.016Z,3.10
2017-12-16T01:57:16.720Z,2.90
2017-12-16T01:59:43.642Z,2.90
2017-12-16T02:02:10.550Z,2.90
2017-12-16T02:04:37.511Z,2.90
2017-12-16T02:07:04.426Z,2.80
2017-12-16T02:09:32.114Z,2.70
2017-12-16T02:11:59.049Z,2.60
2017-12-16T02:14:25.978Z,2.60
2017-12-16T02:16:52.900Z,2.60
2017-12-16T02:19:19.836Z,2.60
2017-12-16T02:21:46.740Z,2.50
2017-12-16T02:24:13.673Z,2.40
2017-12-16T02:26:41.390Z,2.30
2017-12-16T02:29:08.298Z,2.30
2017-12-16T02:31:35.220Z,2.20
2017-12-16T02:34:02.141Z,2.20
2017-12-16T02:36:29.050Z,2.10
2017-12-16T02:38:55.984Z,2.10
2017-12-16T02:41:22.918Z,2.10
2017-12-16T02:43:49.842Z,2.10
2017-12-16T02:46:17.532Z,2.00
2017-12-16T02:48:44.447Z,2.00
2017-12-16T02:51:12.140Z,1.90
2017-12-16T02:53:39.062Z,1.90
2017-12-16T02:56:06.027Z,1.90
2017-12-16T02:58:32.937Z,1.80
2017-12-16T03:01:00.640Z,1.70
2017-12-16T03:03:27.556Z,1.70
2017-12-16T03:05:55.244Z,1.70
2017-12-16T03:08:22.150Z,1.90
2017-12-16T03:10:49.848Z,1.70
2017-12-16T03:13:16.768Z,1.60
2017-12-16T03:15:44.520Z,1.60
2017-12-16T03:18:11.430Z,1.70
2017-12-16T03:20:38.355Z,1.70
2017-12-16T03:23:05.293Z,1.70
2017-12-16T03:25:32.230Z,1.60
2017-12-16T03:27:59.145Z,1.60
2017-12-16T03:30:26.842Z,1.70
2017-12-16T03:32:53.758Z,1.60
2017-12-16T03:35:21.462Z,1.70
2017-12-16T03:37:48.381Z,2.00
2017-12-16T03:40:15.303Z,1.80
2017-12-16T03:42:43.765Z,1.80
2017-12-16T03:45:10.692Z,1.70
2017-12-16T03:47:37.615Z,1.80
2017-12-16T03:50:04.563Z,1.80
2017-12-16T03:52:31.477Z,1.80
2017-12-16T03:54:58.397Z,1.70
2017-12-16T03:57:26.081Z,1.80
2017-12-16T03:59:53.004Z,2.00
2017-12-16T04:02:20.734Z,1.90
2017-12-16T04:04:47.660Z,1.90
2017-12-16T04:07:14.578Z,1.80
2017-12-16T04:09:41.559Z,1.80
2017-12-16T04:12:08.482Z,1.80
2017-12-16T04:14:35.407Z,1.90
2017-12-16T04:17:02.312Z,2.00
2017-12-16T04:19:29.232Z,2.00
2017-12-16T04:21:56.144Z,1.90
2017-12-16T04:24:23.063Z,2.00
2017-12-16T04:26:50.746Z,2.00
2017-12-16T04:29:17.668Z,2.20
2017-12-16T04:31:44.576Z,1.90
2017-12-16T04:34:12.260Z,1.90
2017-12-16T04:36:39.174Z,2.10
2017-12-16T04:39:06.101Z,1.90
2017-12-16T04:41:33.007Z,1.90
2017-12-16T04:43:59.928Z,1.90
2017-12-16T04:46:26.832Z,2.00
2017-12-16T04:48:54.517Z,2.00
2017-12-16T04:51:21.420Z,2.00
2017-12-16T04:53:48.335Z,2.00
2017-12-16T04:56:15.242Z,2.00
2017-12-16T04:58:42.165Z,2.00
2017-12-16T05:01:09.068Z,1.90
2017-12-16T05:03:35.992Z,1.90
2017-12-16T05:06:03.676Z,2.00
2017-12-16T05:08:30.584Z,2.10
2017-12-16T05:10:57.502Z,2.00
2017-12-16T05:13:25.179Z,1.90
2017-12-16T05:15:52.105Z,1.90
2017-12-16T05:18:19.794Z,2.00
2017-12-16T05:20:46.712Z,2.10
2017-12-16T05:23:13.632Z,2.00
2017-12-16T05:25:41.324Z,2.00
2017-12-16T05:28:08.232Z,2.00
2017-12-16T05:30:35.148Z,2.20
2017-12-16T05:33:02.088Z,2.20
2017-12-16T05:35:29.004Z,2.10
2017-12-16T05:37:55.913Z,2.30
2017-12-16T05:40:22.856Z,2.20
2017-12-16T05:42:49.798Z,2.10
2017-12-16T05:45:16.722Z,2.00
2017-12-16T05:47:43.645Z,2.10
2017-12-16T05:50:10.565Z,2.10
2017-12-16T05:52:37.493Z,2.20
2017-12-16T05:55:04.403Z,2.10
2017-12-16T05:57:31.325Z,2.10
2017-12-16T05:59:58.228Z,2.10
2017-12-16T06:02:25.153Z,2.20
2017-12-16T06:04:52.057Z,2.10
2017-12-16T06:07:18.976Z,2.20
2017-12-16T06:09:45.876Z,2.20
2017-12-16T06:12:12.832Z,2.20
2017-12-16T06:14:39.750Z,2.30
2017-12-16T06:17:06.666Z,2.40
2017-12-16T06:19:33.589Z,2.40
2017-12-16T06:22:01.273Z,2.40
2017-12-16T06:24:28.185Z,2.50
2017-12-16T06:26:55.093Z,2.50
2017-12-16T06:29:22.041Z,2.40
2017-12-16T06:31:49.721Z,2.40
2017-12-16T06:34:16.646Z,2.40
2017-12-16T06:36:43.562Z,2.50
2017-12-16T06:39:10.500Z,2.40
2017-12-16T06:41:38.188Z,2.40
2017-12-16T06:44:05.100Z,2.50
2017-12-16T06:46:31.999Z,2.40
2017-12-16T06:48:59.689Z,2.40
2017-12-16T06:51:27.381Z,2.30
2017-12-16T06:53:54.288Z,2.40
2017-12-16T06:56:22.147Z,2.30
2017-12-16T06:58:49.052Z,2.20
2017-12-16T07:01:15.964Z,2.20
2017-12-16T07:03:42.880Z,2.20
2017-12-16T07:06:09.789Z,2.20
2017-12-16T07:08:36.716Z,2.30
2017-12-16T07:11:03.641Z,2.20
2017-12-16T07:13:30.535Z,2.10
2017-12-16T07:15:58.216Z,2.10
2017-12-16T07:18:27.084Z,2.10
2017-12-16T07:20:54.030Z,2.10
2017-12-16T07:23:20.928Z,2.00
2017-12-16T07:25:47.844Z,2.10
2017-12-16T07:28:14.765Z,2.00
2017-12-16T07:30:42.473Z,1.90
2017-12-16T07:33:09.394Z,2.10
2017-12-16T07:35:36.327Z,2.00
2017-12-16T07:38:03.300Z,2.00
2017-12-16T07:40:30.232Z,1.90
2017-12-16T07:42:57.156Z,2.00
2017-12-16T07:45:24.828Z,2.00
2017-12-16T07:47:51.751Z,2.10
2017-12-16T07:50:19.517Z,2.00
2017-12-16T07:52:47.244Z,2.00
2017-12-16T07:55:14.154Z,2.10
2017-12-16T07:57:41.082Z,2.00
2017-12-16T08:00:08.749Z,1.90
2017-12-16T08:02:35.665Z,2.00
2017-12-16T08:05:02.581Z,1.90
2017-12-16T08:07:29.508Z,1.90
2017-12-16T08:09:56.416Z,1.90
2017-12-16T08:12:23.352Z,1.90
2017-12-16T08:14:51.058Z,2.00
2017-12-16T08:17:17.965Z,2.00
2017-12-16T08:19:45.644Z,2.00
2017-12-16T08:22:12.569Z,2.00
2017-12-16T08:24:39.480Z,2.00
2017-12-16T08:27:06.419Z,2.10
2017-12-16T08:29:33.340Z,2.00
2017-12-16T08:32:00.273Z,2.10
2017-12-16T08:34:27.180Z,2.10
2017-12-16T08:36:54.096Z,2.20
2017-12-16T08:39:21.012Z,2.20
2017-12-16T08:41:47.956Z,2.30
2017-12-16T08:44:14.872Z,2.30
2017-12-16T08:46:42.560Z,2.40
2017-12-16T08:49:09.452Z,2.50
2017-12-16T08:51:36.369Z,2.40
2017-12-16T08:54:03.280Z,2.30
2017-12-16T08:56:30.209Z,2.20
2017-12-16T08:58:57.116Z,2.20
2017-12-16T09:01:24.045Z,2.30
2017-12-16T09:03:50.968Z,2.40
2017-12-16T09:06:17.907Z,2.60
2017-12-16T09:08:44.832Z,2.60
2017-12-16T09:11:11.770Z,2.60
2017-12-16T09:13:38.683Z,2.70
2017-12-16T09:16:06.360Z,2.60
2017-12-16T09:18:33.264Z,2.60
2017-12-16T09:21:00.217Z,2.70
2017-12-16T09:23:27.137Z,2.70
2017-12-16T09:25:54.052Z,2.70
2017-12-16T09:28:20.986Z,2.80
2017-12-16T09:30:47.910Z,2.80
2017-12-16T09:33:15.608Z,2.90
2017-12-16T09:35:42.512Z,2.90
2017-12-16T09:38:09.446Z,2.90
2017-12-16T09:40:36.339Z,3.00
2017-12-16T09:43:03.266Z,3.00
2017-12-16T09:45:30.169Z,3.00
2017-12-16T09:47:59.092Z,3.10
2017-12-16T09:50:26.774Z,3.10
2017-12-16T09:52:53.694Z,3.20
2017-12-16T09:55:21.365Z,3.30
2017-12-16T09:57:48.289Z,3.20
2017-12-16T10:00:16.394Z,3.40
2017-12-16T10:02:43.286Z,3.40
2017-12-16T10:05:10.200Z,3.30
2017-12-16T10:07:37.105Z,3.40
2017-12-16T10:10:04.789Z,3.50
2017-12-16T10:12:31.701Z,3.50
2017-12-16T10:14:59.386Z,3.50
2017-12-16T10:17:26.288Z,3.40
2017-12-16T10:19:53.209Z,3.60
2017-12-16T10:22:20.115Z,3.60
2017-12-16T10:24:47.038Z,3.60
2017-12-16T10:27:14.851Z,4.10
2017-12-16T10:29:41.774Z,4.30
2017-12-16T10:32:08.689Z,4.00
2017-12-16T10:34:36.414Z,4.10
2017-12-16T10:37:03.337Z,4.30
2017-12-16T10:39:30.261Z,4.40
2017-12-16T10:41:57.413Z,4.30
2017-12-16T10:44:24.373Z,4.30
2017-12-16T10:46:51.309Z,4.20
2017-12-16T10:49:19.049Z,4.00
2017-12-16T10:51:46.782Z,3.90
2017-12-16T10:54:13.837Z,4.10
2017-12-16T10:56:40.736Z,3.90
2017-12-16T10:59:07.656Z,4.00
2017-12-16T11:01:34.557Z,4.10
2017-12-16T11:04:03.485Z,4.10
2017-12-16T11:06:30.396Z,4.10
2017-12-16T11:08:57.332Z,4.10
2017-12-16T11:11:24.233Z,4.20
2017-12-16T11:13:51.169Z,4.20
2017-12-16T11:16:18.089Z,4.20
2017-12-16T11:18:45.042Z,4.20
2017-12-16T11:21:12.731Z,4.20
2017-12-16T11:23:41.640Z,4.10
2017-12-16T11:26:08.544Z,4.30
2017-12-16T11:28:35.465Z,4.30
2017-12-16T11:31:02.365Z,4.30
2017-12-16T11:33:30.055Z,4.20
2017-12-16T11:35:56.960Z,4.30
2017-12-16T11:38:24.645Z,4.30
2017-12-16T11:40:51.555Z,4.10
2017-12-16T11:43:18.477Z,4.30
2017-12-16T11:45:45.384Z,4.30
2017-12-16T11:48:12.335Z,4.30
2017-12-16T11:50:39.232Z,4.30
2017-12-16T11:53:06.134Z,4.30
2017-12-16T11:55:33.061Z,4.30
2017-12-16T11:58:00.011Z,4.30
2017-12-16T12:00:27.736Z,4.50
2017-12-16T12:02:54.635Z,4.60
2017-12-16T12:05:21.556Z,4.50
2017-12-16T12:07:48.456Z,4.60
2017-12-16T12:10:15.368Z,4.60
2017-12-16T12:12:42.266Z,4.50
2017-12-16T12:15:09.956Z,4.50
2017-12-16T12:17:36.900Z,4.50
2017-12-16T12:20:03.817Z,4.50
2017-12-16T12:22:31.488Z,4.50
2017-12-16T12:24:59.170Z,4.50
2017-12-16T12:27:26.834Z,4.50
2017-12-16T12:29:53.773Z,4.60
2017-12-16T12:32:21.440Z,4.60
2017-12-16T12:34:48.372Z,4.60
2017-12-16T12:37:16.045Z,4.70
2017-12-16T12:39:42.971Z,4.60
2017-12-16T12:42:10.654Z,4.90
2017-12-16T12:44:37.575Z,5.00
2017-12-16T12:47:04.477Z,5.00
2017-12-16T12:49:32.335Z,5.10
2017-12-16T12:51:59.238Z,5.00
2017-12-16T12:54:26.177Z,5.00
2017-12-16T12:56:53.086Z,5.00
2017-12-16T12:59:20.772Z,5.00
2017-12-16T13:01:48.553Z,5.20
2017-12-16T13:04:15.483Z,5.10
2017-12-16T13:06:42.400Z,5.20
2017-12-16T13:09:09.328Z,5.50
2017-12-16T13:11:36.994Z,5.70
2017-12-16T13:14:03.913Z,5.70
2017-12-16T13:16:30.812Z,5.90
2017-12-16T13:18:57.728Z,5.50
2017-12-16T13:21:24.632Z,5.30
2017-12-16T13:23:51.560Z,5.30
2017-12-16T13:26:18.480Z,4.90
2017-12-16T13:28:45.392Z,4.90
2017-12-16T13:31:13.077Z,5.10
2017-12-16T13:33:39.996Z,5.20
2017-12-16T13:36:07.672Z,5.00
2017-12-16T13:38:34.604Z,5.00
2017-12-16T13:41:03.304Z,5.10
2017-12-16T13:43:30.250Z,5.40
2017-12-16T13:45:57.169Z,5.10
2017-12-16T13:48:24.866Z,5.10
2017-12-16T13:50:51.777Z,5.10
2017-12-16T13:53:18.730Z,5.10
2017-12-16T13:55:46.589Z,5.00
2017-12-16T13:58:14.281Z,4.80
2017-12-16T14:00:41.237Z,5.10
2017-12-16T14:03:08.170Z,4.80
2017-12-16T14:05:35.101Z,4.70
2017-12-16T14:08:02.037Z,4.70
2017-12-16T14:10:29.789Z,4.50
2017-12-16T14:12:57.532Z,4.60
2017-12-16T14:15:24.443Z,4.50
2017-12-16T14:17:51.358Z,4.50
2017-12-16T14:20:18.263Z,4.40
2017-12-16T14:22:46.156Z,4.40
2017-12-16T14:25:13.835Z,4.30
2017-12-16T14:27:40.763Z,4.30
2017-12-16T14:30:08.444Z,4.50
2017-12-16T14:32:35.377Z,4.70
2017-12-16T14:35:03.044Z,4.50
2017-12-16T14:37:30.717Z,4.50
2017-12-16T14:39:57.641Z,4.50
2017-12-16T14:42:25.309Z,4.50
2017-12-16T14:44:53.003Z,4.50
2017-12-16T14:47:19.912Z,4.50
2017-12-16T14:49:46.845Z,4.50
2017-12-16T14:52:14.517Z,4.10
2017-12-16T14:54:42.200Z,4.10
2017-12-16T14:57:09.096Z,4.10
2017-12-16T14:59:36.038Z,4.10
2017-12-16T15:02:02.945Z,4.00
2017-12-16T15:04:29.864Z,4.00
2017-12-16T15:06:56.771Z,3.90
2017-12-16T15:09:23.693Z,3.70
2017-12-16T15:11:50.593Z,3.70
2017-12-16T15:14:17.508Z,3.60
2017-12-16T15:16:44.413Z,3.60
2017-12-16T15:19:11.337Z,3.50
2017-12-16T15:21:39.008Z,3.40
2017-12-16T15:24:05.929Z,3.50
2017-12-16T15:26:34.885Z,3.40
2017-12-16T15:29:01.833Z,3.40
2017-12-16T15:31:28.737Z,3.40
2017-12-16T15:33:57.624Z,3.30
2017-12-16T15:36:24.528Z,3.30
2017-12-16T15:38:51.441Z,3.40
2017-12-16T15:41:18.388Z,3.30
2017-12-16T15:43:45.300Z,3.40
2017-12-16T15:46:12.229Z,3.50
2017-12-16T15:48:39.152Z,3.50
2017-12-16T15:51:06.082Z,3.40
2017-12-16T15:53:33.025Z,3.40
2017-12-16T15:55:59.942Z,3.40
2017-12-16T15:58:28.817Z,3.30
2017-12-16T16:00:55.724Z,3.20
2017-12-16T16:03:22.669Z,3.10
2017-12-16T16:05:50.365Z,3.10
2017-12-16T16:08:21.235Z,3.10
2017-12-16T16:10:48.168Z,3.00
2017-12-16T16:13:15.102Z,3.10
2017-12-16T16:15:42.033Z,3.10
2017-12-16T16:18:09.721Z,3.10
2017-12-16T16:20:36.653Z,3.20
2017-12-16T16:23:03.554Z,3.10
2017-12-16T16:25:30.486Z,3.10
2017-12-16T16:27:57.393Z,3.00
2017-12-16T16:30:24.309Z,3.00
2017-12-16T16:32:52.000Z,3.00
2017-12-16T16:35:18.928Z,3.10
2017-12-16T16:37:45.829Z,3.00
2017-12-16T16:40:12.752Z,3.10
2017-12-16T16:42:39.689Z,3.10
2017-12-16T16:45:06.612Z,3.20
2017-12-16T16:47:33.527Z,3.30
2017-12-16T16:50:01.217Z,3.30
2017-12-16T16:52:28.120Z,3.40
2017-12-16T16:54:55.043Z,3.30
2017-12-16T16:57:21.949Z,3.30
2017-12-16T16:59:48.867Z,3.30
2017-12-16T17:02:20.404Z,3.20
2017-12-16T17:04:47.337Z,3.40
2017-12-16T17:07:14.340Z,3.30
2017-12-16T17:09:41.283Z,3.00
2017-12-16T17:12:09.149Z,2.90
2017-12-16T17:14:37.872Z,2.90
2017-12-16T17:17:05.652Z,2.80
2017-12-16T17:19:32.549Z,2.80
2017-12-16T17:21:59.450Z,2.80
2017-12-16T17:24:26.373Z,2.80
2017-12-16T17:26:53.304Z,2.80
2017-12-16T17:29:20.328Z,2.70
2017-12-16T17:31:47.299Z,2.70
2017-12-16T17:34:14.192Z,2.80
2017-12-16T17:36:41.137Z,2.60
2017-12-16T17:39:08.867Z,2.50
2017-12-16T17:41:35.813Z,2.50
2017-12-16T17:44:03.541Z,2.60
2017-12-16T17:46:31.389Z,2.80
2017-12-16T17:48:58.304Z,2.80
2017-12-16T17:51:25.230Z,2.80
2017-12-16T17:53:52.154Z,2.70
2017-12-16T17:56:19.859Z,2.70
2017-12-16T17:58:47.557Z,2.60
2017-12-16T18:01:14.505Z,2.70
2017-12-16T18:03:41.416Z,2.50
2017-12-16T18:06:08.357Z,2.50
2017-12-16T18:08:36.032Z,2.60
2017-12-16T18:11:03.722Z,2.50
2017-12-16T18:13:30.664Z,2.70
2017-12-16T18:15:57.585Z,2.40
2017-12-16T18:18:24.517Z,2.40
2017-12-16T18:20:52.201Z,2.40
2017-12-16T18:23:19.169Z,2.20
2017-12-16T18:25:46.077Z,2.40
2017-12-16T18:28:13.773Z,2.40
2017-12-16T18:30:41.694Z,2.70
2017-12-16T18:33:10.402Z,2.30
2017-12-16T18:35:37.323Z,2.40
2017-12-16T18:38:05.018Z,2.30
2017-12-16T18:40:31.949Z,2.20
2017-12-16T18:42:58.893Z,2.30
2017-12-16T18:45:25.808Z,2.30
2017-12-16T18:47:54.732Z,2.50
2017-12-16T18:50:21.638Z,2.50
2017-12-16T18:52:48.548Z,2.50
2017-12-16T18:55:15.453Z,2.50
2017-12-16T18:57:43.311Z,2.40
2017-12-16T19:00:12.277Z,2.30
2017-12-16T19:02:39.198Z,2.30
2017-12-16T19:05:06.646Z,2.20
2017-12-16T19:10:29.910Z,2.20
2017-12-16T19:12:57.064Z,2.40
2017-12-16T19:15:24.893Z,2.20
2017-12-16T19:17:52.593Z,2.60
2017-12-16T19:20:19.505Z,2.80
2017-12-16T19:22:47.245Z,2.30
2017-12-16T19:25:14.157Z,2.40
2017-12-16T19:27:41.077Z,2.50
2017-12-16T19:30:07.983Z,2.30
2017-12-16T19:32:34.905Z,2.30
2017-12-16T19:35:01.813Z,2.20
2017-12-16T19:37:29.056Z,2.20
2017-12-16T19:39:55.973Z,2.20
2017-12-16T19:42:22.931Z,2.10
2017-12-16T19:44:49.833Z,2.00
2017-12-16T19:47:19.305Z,2.00
2017-12-16T19:49:46.331Z,2.10
2017-12-16T19:52:14.176Z,2.00
2017-12-16T19:54:41.179Z,2.00
2017-12-16T19:57:08.117Z,2.00
2017-12-16T19:59:35.954Z,2.00
2017-12-16T20:02:02.923Z,2.10
2017-12-16T20:04:29.854Z,2.10
2017-12-16T20:06:56.758Z,2.00
2017-12-16T20:09:23.698Z,2.00
2017-12-16T20:11:51.592Z,1.90
2017-12-16T20:14:19.378Z,1.70
2017-12-16T20:16:47.345Z,1.60
2017-12-16T20:19:14.293Z,1.70
2017-12-16T20:21:41.249Z,1.70
2017-12-16T20:24:08.394Z,1.80
2017-12-16T20:26:35.332Z,1.70
2017-12-16T20:29:02.268Z,1.80
2017-12-16T20:31:29.185Z,1.60
2017-12-16T20:33:57.826Z,1.70
2017-12-16T20:36:24.744Z,1.90
2017-12-16T20:38:51.668Z,1.50
2017-12-16T20:41:18.604Z,1.70
2017-12-16T20:43:45.555Z,1.60
2017-12-16T20:46:13.236Z,1.60
2017-12-16T20:48:40.152Z,1.70
2017-12-16T20:51:07.077Z,1.60
2017-12-16T20:53:33.976Z,1.50
2017-12-16T20:56:00.896Z,1.60
2017-12-16T20:58:28.560Z,1.50
2017-12-16T21:00:56.364Z,1.50
2017-12-16T21:03:23.300Z,1.70
2017-12-16T21:05:50.237Z,1.50
2017-12-16T21:08:17.169Z,1.50
2017-12-16T21:10:44.347Z,1.40
2017-12-16T21:13:11.289Z,1.50
2017-12-16T21:15:38.190Z,1.50
2017-12-16T21:18:05.893Z,1.40
2017-12-16T21:20:32.890Z,1.60
2017-12-16T21:22:59.957Z,1.40
2017-12-16T21:25:26.885Z,1.40
2017-12-16T21:27:53.820Z,1.30
2017-12-16T21:30:20.728Z,1.30
2017-12-16T21:32:47.640Z,1.30
2017-12-16T21:35:15.309Z,1.20
2017-12-16T21:37:42.248Z,1.30
2017-12-16T21:40:10.167Z,1.30
2017-12-16T21:42:37.104Z,1.30
2017-12-16T21:45:04.029Z,1.20
2017-12-16T21:47:30.974Z,1.20
2017-12-16T21:49:57.881Z,1.20
2017-12-16T21:52:25.553Z,1.30
2017-12-16T21:54:52.485Z,1.50
2017-12-16T21:57:20.168Z,1.10
2017-12-16T21:59:47.084Z,1.20
2017-12-16T22:02:13.994Z,1.10
2017-12-16T22:04:41.946Z,1.20
2017-12-16T22:07:08.877Z,1.10
2017-12-16T22:09:35.812Z,1.00
2017-12-16T22:12:03.665Z,1.00
2017-12-16T22:14:31.368Z,0.90
2017-12-16T22:16:58.285Z,1.10
2017-12-16T22:19:25.206Z,1.00
2017-12-16T22:21:52.899Z,1.00
2017-12-16T22:24:19.828Z,0.90
2017-12-16T22:26:46.722Z,1.00
2017-12-16T22:29:13.718Z,1.10
2017-12-16T22:31:40.567Z,1.00
2017-12-16T22:34:08.415Z,0.90
2017-12-16T22:36:35.363Z,1.00
2017-12-16T22:39:04.040Z,0.90
2017-12-16T22:41:30.952Z,0.90
2017-12-16T22:43:58.867Z,1.00
2017-12-16T22:46:26.562Z,1.00
2017-12-16T22:48:53.486Z,0.90
2017-12-16T22:51:20.418Z,0.80
2017-12-16T22:53:53.617Z,0.80
2017-12-16T22:56:20.563Z,0.80
2017-12-16T22:58:47.490Z,0.70
2017-12-16T23:01:15.209Z,0.70
2017-12-16T23:03:42.139Z,0.70
2017-12-16T23:06:09.058Z,0.70
2017-12-16T23:08:35.980Z,0.70
2017-12-16T23:11:03.669Z,0.70
2017-12-16T23:13:30.577Z,0.70
2017-12-16T23:15:59.464Z,0.70
2017-12-16T23:18:27.142Z,0.60
2017-12-16T23:20:54.096Z,0.60
2017-12-16T23:23:21.781Z,0.70
2017-12-16T23:25:48.709Z,0.70
2017-12-16T23:28:15.659Z,0.60
2017-12-16T23:30:42.600Z,0.60
2017-12-16T23:33:09.515Z,0.60
2017-12-16T23:35:36.446Z,0.60
2017-12-16T23:38:03.364Z,0.50
2017-12-16T23:40:30.296Z,0.60
2017-12-16T23:42:57.209Z,0.60
2017-12-16T23:45:24.940Z,0.50
2017-12-16T23:47:51.843Z,0.60
2017-12-16T23:50:18.817Z,0.60
2017-12-16T23:52:45.726Z,0.50
2017-12-16T23:55:13.432Z,0.60
2017-12-16T23:57:40.354Z,0.50
